Time;durP1;ratioP1;P1;durP2;ratioP2;P2;SDS_P1;SDS_P2;PMS_P1;PMS_P2;Temp;Humidity;BMP_temperature;BMP_pressure;BME280_temperature;BME280_humidity;BME280_pressure;Samples;Min_cycle;Max_cycle;Signal;HPM_P1;HPM_P2
2022/01/17 00:01:29;;;;;;;;;;;;;;;;;;5055140;28;20369;-84
2022/01/17 00:03:54;;;;;;;;;;;;;;;;;;5055033;28;19931;-83
2022/01/17 00:06:20;;;;;;;;;;;;;;;;;;5054897;28;20369;-83
2022/01/17 00:08:46;;;;;;;;;;;;;;;;;;5054910;28;19939;-82
2022/01/17 00:11:12;;;;;;;;;;;;;;;;;;5054763;28;19931;-81
2022/01/17 00:13:39;;;;;;;;;;;;;;;;;;5054866;28;19921;-85
2022/01/17 00:16:15;;;;;;;;;;;;;;;;;;5054802;28;19920;-83
2022/01/17 00:21:12;;;;;;;;;;;;;;;;;;5054605;28;20292;-83
2022/01/17 00:23:38;;;;;;;;;;;;;;;;;;5054632;28;19921;-85
2022/01/17 00:26:04;;;;;;;;;;;;;;;;;;5054939;28;19924;-84
2022/01/17 00:28:30;;;;;;;;;;;;;;;;;;5054446;28;19916;-83
2022/01/17 00:30:55;;;;;;;;;;;;;;;;;;5054594;28;20284;-86
2022/01/17 00:33:21;;;;;;;;;;;;;;;;;;5054477;28;19916;-82
2022/01/17 00:35:46;;;;;;;;;;;;;;;;;;5053689;28;19916;-82
2022/01/17 00:38:12;;;;;;;;;;;;;;;;;;5054366;28;20261;-82
2022/01/17 00:40:38;;;;;;;;;;;;;;;;;;5036766;28;19917;-82
2022/01/17 00:43:03;;;;;;;;;;;;;;;;;;5054195;28;20016;-84
2022/01/17 00:45:29;;;;;;;;;;;;;;;;;;5054246;28;20384;-86
2022/01/17 00:47:55;;;;;;;;;;;;;;;;;;5035918;28;20292;-83
2022/01/17 00:50:25;;;;;;;;;;;;;;;;;;5054193;28;19916;-82
2022/01/17 00:52:51;;;;;;;;;;;;;;;;;;5053945;28;19964;-84
2022/01/17 00:55:17;;;;;;;;;;;;;;;;;;5054058;28;19998;-83
2022/01/17 00:57:42;;;;;;;;;;;;;;;;;;5036482;28;20375;-82
2022/01/17 01:00:09;;;;;;;;;;;;;;;;;;5069359;28;19916;-81
2022/01/17 01:02:34;;;;;;;;;;;;;;;;;;5054192;28;20353;-85
2022/01/17 01:05:00;;;;;;;;;;;;;;;;;;5069164;28;19924;-82
2022/01/17 01:07:25;;;;;;;;;;;;;;;;;;5053934;28;19928;-85
2022/01/17 01:10:10;;;;;;;;;;;;;;;;;;5053709;28;19921;-84
2022/01/17 01:12:39;;;;;;;;;;;;;;;;;;5054033;28;19916;-83
2022/01/17 01:15:06;;;;;;;;;;;;;;;;;;5035706;28;20306;-83
2022/01/17 01:17:48;;;;;;;;;;;;;;;;;;5035380;28;19928;-83
2022/01/17 01:28:22;;;;;;;;;;;;;;;;;;5053463;28;19927;-84
2022/01/17 01:30:51;;;;;;;;;;;;;;;;;;5068800;28;19916;-82
2022/01/17 01:33:25;;;;;;;;;;;;;;;;;;5053335;28;20288;-84
2022/01/17 01:35:57;;;;;;;;;;;;;;;;;;5053336;28;19921;-81
2022/01/17 01:38:22;;;;;;;;;;;;;;;;;;5053326;28;19916;-82
2022/01/17 01:40:48;;;;;;;;;;;;;;;;;;5053322;28;20265;-86
2022/01/17 01:43:13;;;;;;;;;;;;;;;;;;5053212;28;19921;-82
2022/01/17 01:45:39;;;;;;;;;;;;;;;;;;5053182;28;19996;-83
2022/01/17 01:48:05;;;;;;;;;;;;;;;;;;5053052;28;20011;-83
2022/01/17 01:50:31;;;;;;;;;;;;;;;;;;5034960;28;19955;-83
2022/01/17 01:52:56;;;;;;;;;;;;;;;;;;5052925;28;20342;-86
2022/01/17 01:55:22;;;;;;;;;;;;;;;;;;5035272;28;20424;-85
2022/01/17 01:57:48;;;;;;;;;;;;;;;;;;5053009;28;19920;-83
2022/01/17 02:00:14;;;;;;;;;;;;;;;;;;5035355;28;19921;-81
2022/01/17 02:02:39;;;;;;;;;;;;;;;;;;5052971;28;20374;-84
2022/01/17 02:05:05;;;;;;;;;;;;;;;;;;5052794;28;20003;-85
2022/01/17 02:07:31;;;;;;;;;;;;;;;;;;5052843;28;19917;-83
2022/01/17 02:09:57;;;;;;;;;;;;;;;;;;5068289;28;19940;-82
2022/01/17 02:12:23;;;;;;;;;;;;;;;;;;5052895;28;19948;-85
2022/01/17 02:14:50;;;;;;;;;;;;;;;;;;5034954;28;19987;-84
2022/01/17 02:17:16;;;;;;;;;;;;;;;;;;5052718;28;20380;-81
2022/01/17 02:19:45;;;;;;;;;;;;;;;;;;5052870;28;19921;-82
2022/01/17 02:22:11;;;;;;;;;;;;;;;;;;5052715;28;19962;-83
2022/01/17 02:24:37;;;;;;;;;;;;;;;;;;5068106;28;19922;-85
2022/01/17 02:27:02;;;;;;;;;;;;;;;;;;5052647;28;20008;-82
2022/01/17 02:29:29;;;;;;;;;;;;;;;;;;5034686;28;20016;-85
2022/01/17 02:31:55;;;;;;;;;;;;;;;;;;5052733;28;19917;-83
2022/01/17 02:34:20;;;;;;;;;;;;;;;;;;5052686;28;19916;-82
2022/01/17 02:36:46;;;;;;;;;;;;;;;;;;5052674;28;19917;-84
2022/01/17 02:39:12;;;;;;;;;;;;;;;;;;5052645;28;20003;-82
2022/01/17 02:41:39;;;;;;;;;;;;;;;;;;5068000;28;19927;-81
2022/01/17 02:44:05;;;;;;;;;;;;;;;;;;5052652;28;19920;-82
2022/01/17 02:46:30;;;;;;;;;;;;;;;;;;5052498;28;20360;-85
2022/01/17 02:48:57;;;;;;;;;;;;;;;;;;5052389;28;19979;-82
2022/01/17 02:51:23;;;;;;;;;;;;;;;;;;5034636;28;19920;-82
2022/01/17 02:53:48;;;;;;;;;;;;;;;;;;5052284;28;19946;-83
2022/01/17 02:56:14;;;;;;;;;;;;;;;;;;5052436;28;19917;-84
2022/01/17 02:58:40;;;;;;;;;;;;;;;;;;5052475;28;19921;-81
2022/01/17 03:01:20;;;;;;;;;;;;;;;;;;5056081;28;19921;-81
2022/01/17 03:03:45;;;;;;;;;;;;;;;;;;5056254;28;19932;-81
2022/01/17 03:06:12;;;;;;;;;;;;;;;;;;5038241;28;19917;-83
2022/01/17 03:08:39;;;;;;;;;;;;;;;;;;5038197;28;19982;-81
2022/01/17 03:11:05;;;;;;;;;;;;;;;;;;5056001;28;19936;-85
2022/01/17 03:13:33;;;;;;;;;;;;;;;;;;5056035;28;19921;-83
2022/01/17 03:16:00;;;;;;;;;;;;;;;;;;5055927;28;19948;-81
2022/01/17 03:18:29;;;;;;;;;;;;;;;;;;5055860;28;19921;-80
2022/01/17 03:20:55;;;;;;;;;;;;;;;;;;5055898;28;19924;-83
2022/01/17 03:23:20;;;;;;;;;;;;;;;;;;5055829;28;19931;-81
2022/01/17 03:25:46;;;;;;;;;;;;;;;;;;5055876;28;19916;-79
2022/01/17 03:28:11;;;;;;;;;;;;;;;;;;5055391;28;19924;-83
2022/01/17 03:30:37;;;;;;;;;;;;;;;;;;5055819;28;19962;-82
2022/01/17 03:33:04;;;;;;;;;;;;;;;;;;5037752;28;19917;-84
2022/01/17 03:35:29;;;;;;;;;;;;;;;;;;5055655;28;19912;-81
2022/01/17 03:37:54;;;;;;;;;;;;;;;;;;5055573;28;19917;-82
2022/01/17 03:40:20;;;;;;;;;;;;;;;;;;5055507;28;19916;-81
2022/01/17 03:42:46;;;;;;;;;;;;;;;;;;5055512;28;19920;-84
2022/01/17 03:45:11;;;;;;;;;;;;;;;;;;5037478;28;19921;-84
2022/01/17 03:47:41;;;;;;;;;;;;;;;;;;5037456;28;19921;-81
2022/01/17 03:50:08;;;;;;;;;;;;;;;;;;5055542;28;19925;-82
2022/01/17 03:52:34;;;;;;;;;;;;;;;;;;5055129;28;20023;-81
2022/01/17 03:54:59;;;;;;;;;;;;;;;;;;5055120;28;19992;-81
2022/01/17 03:57:25;;;;;;;;;;;;;;;;;;5055296;28;19970;-83
2022/01/17 03:59:50;;;;;;;;;;;;;;;;;;5055131;28;19916;-82
2022/01/17 04:02:16;;;;;;;;;;;;;;;;;;5055087;28;19917;-81
2022/01/17 04:04:41;;;;;;;;;;;;;;;;;;5055064;28;20362;-81
2022/01/17 04:07:07;;;;;;;;;;;;;;;;;;5054908;28;19927;-81
2022/01/17 04:09:32;;;;;;;;;;;;;;;;;;5054978;28;19927;-81
2022/01/17 04:11:58;;;;;;;;;;;;;;;;;;5053856;28;19928;-81
2022/01/17 04:14:23;;;;;;;;;;;;;;;;;;5054938;28;20419;-80
2022/01/17 04:16:49;;;;;;;;;;;;;;;;;;5054814;28;19917;-81
2022/01/17 04:19:16;;;;;;;;;;;;;;;;;;5054724;28;20295;-82
2022/01/17 04:21:42;;;;;;;;;;;;;;;;;;5054851;28;20066;-81
2022/01/17 04:24:07;;;;;;;;;;;;;;;;;;5054813;28;20436;-82
2022/01/17 04:26:32;;;;;;;;;;;;;;;;;;5054629;28;19917;-81
2022/01/17 04:28:58;;;;;;;;;;;;;;;;;;5036565;28;19916;-81
2022/01/17 04:31:23;;;;;;;;;;;;;;;;;;5053595;28;19925;-81
2022/01/17 04:33:49;;;;;;;;;;;;;;;;;;5036611;28;19964;-82
2022/01/17 04:36:14;;;;;;;;;;;;;;;;;;5036603;28;19960;-82
2022/01/17 04:38:40;;;;;;;;;;;;;;;;;;5054425;28;19928;-81
2022/01/17 04:41:13;;;;;;;;;;;;;;;;;;5069782;28;19921;-83
2022/01/17 04:46:05;;;;;;;;;;;;;;;;;;5054609;28;19916;-81
2022/01/17 04:48:31;;;;;;;;;;;;;;;;;;5054074;28;19979;-81
2022/01/17 04:50:58;;;;;;;;;;;;;;;;;;5054118;28;19921;-83
2022/01/17 04:53:24;;;;;;;;;;;;;;;;;;5053967;28;20297;-83
2022/01/17 04:55:49;;;;;;;;;;;;;;;;;;5051923;28;19973;-82
2022/01/17 04:58:15;;;;;;;;;;;;;;;;;;5067519;28;20391;-84
2022/01/17 05:00:46;;;;;;;;;;;;;;;;;;5053965;28;19956;-85
2022/01/17 05:03:25;;;;;;;;;;;;;;;;;;5053152;28;19924;-83
2022/01/17 05:05:50;;;;;;;;;;;;;;;;;;5047689;28;19931;-82
2022/01/17 05:08:16;;;;;;;;;;;;;;;;;;5050955;28;19920;-84
2022/01/17 05:10:45;;;;;;;;;;;;;;;;;;5053822;28;19921;-83
2022/01/17 05:13:15;;;;;;;;;;;;;;;;;;5051973;28;20011;-81
2022/01/17 05:15:47;;;;;;;;;;;;;;;;;;5043785;28;19948;-82
2022/01/17 05:19:47;;;;;;;;;;;;;;;;;;5045026;28;20381;-83
2022/01/17 05:20:58;;;;;;;;;;;;;;;;;;5047466;28;19932;-85
2022/01/17 05:23:24;;;;;;;;;;;;;;;;;;5053251;28;19917;-83
2022/01/17 05:25:49;;;;;;;;;;;;;;;;;;5055827;28;19920;-81
2022/01/17 05:28:15;;;;;;;;;;;;;;;;;;5052880;28;19916;-82
2022/01/17 05:30:40;;;;;;;;;;;;;;;;;;5051812;28;19920;-84
2022/01/17 05:33:05;;;;;;;;;;;;;;;;;;5051533;28;19913;-80
2022/01/17 05:35:31;;;;;;;;;;;;;;;;;;5051657;28;20567;-82
2022/01/17 05:37:57;;;;;;;;;;;;;;;;;;5052652;28;19917;-83
2022/01/17 05:40:22;;;;;;;;;;;;;;;;;;5052612;28;19913;-82
2022/01/17 05:42:48;;;;;;;;;;;;;;;;;;5052520;28;19924;-83
2022/01/17 05:45:14;;;;;;;;;;;;;;;;;;5052873;28;19923;-84
2022/01/17 05:47:40;;;;;;;;;;;;;;;;;;5053261;28;19920;-82
2022/01/17 05:50:06;;;;;;;;;;;;;;;;;;5053190;28;19928;-82
2022/01/17 05:52:32;;;;;;;;;;;;;;;;;;5053159;28;19920;-82
2022/01/17 05:54:58;;;;;;;;;;;;;;;;;;5056502;28;19924;-84
2022/01/17 05:57:24;;;;;;;;;;;;;;;;;;5056572;28;20000;-81
2022/01/17 05:59:49;;;;;;;;;;;;;;;;;;5054887;28;19920;-84
2022/01/17 06:02:15;;;;;;;;;;;;;;;;;;5053126;28;19917;-81
2022/01/17 06:04:40;;;;;;;;;;;;;;;;;;5053013;28;19956;-83
2022/01/17 06:07:06;;;;;;;;;;;;;;;;;;5052992;28;19921;-85
2022/01/17 06:09:31;;;;;;;;;;;;;;;;;;5068589;28;19920;-82
2022/01/17 06:11:57;;;;;;;;;;;;;;;;;;5052959;28;20411;-85
2022/01/17 06:14:22;;;;;;;;;;;;;;;;;;5068230;28;19940;-81
2022/01/17 06:16:49;;;;;;;;;;;;;;;;;;5052772;28;19917;-83
2022/01/17 06:19:14;;;;;;;;;;;;;;;;;;5052618;28;20440;-84
2022/01/17 06:21:40;;;;;;;;;;;;;;;;;;5052714;28;19967;-82
2022/01/17 06:24:09;;;;;;;;;;;;;;;;;;5052712;28;19962;-84
2022/01/17 06:26:38;;;;;;;;;;;;;;;;;;5052705;28;20361;-81
2022/01/17 06:29:04;;;;;;;;;;;;;;;;;;5052377;28;19916;-82
2022/01/17 06:31:29;;;;;;;;;;;;;;;;;;5052572;28;20407;-82
2022/01/17 06:33:55;;;;;;;;;;;;;;;;;;5053049;28;19924;-82
2022/01/17 06:36:20;;;;;;;;;;;;;;;;;;5056642;28;19913;-85
2022/01/17 06:38:46;;;;;;;;;;;;;;;;;;5056774;28;19924;-83
2022/01/17 06:41:11;;;;;;;;;;;;;;;;;;5056497;28;19999;-84
2022/01/17 06:43:37;;;;;;;;;;;;;;;;;;5056341;28;19923;-85
2022/01/17 06:46:02;;;;;;;;;;;;;;;;;;5056496;28;19924;-81
2022/01/17 06:48:27;;;;;;;;;;;;;;;;;;5056583;28;20382;-84
2022/01/17 06:50:53;;;;;;;;;;;;;;;;;;5056486;28;19917;-82
2022/01/17 06:53:19;;;;;;;;;;;;;;;;;;5056084;28;20347;-83
2022/01/17 06:55:44;;;;;;;;;;;;;;;;;;5071749;28;19960;-84
2022/01/17 06:58:09;;;;;;;;;;;;;;;;;;5056201;28;19925;-81
2022/01/17 07:00:35;;;;;;;;;;;;;;;;;;5056228;28;19917;-81
2022/01/17 07:03:01;;;;;;;;;;;;;;;;;;5056266;28;19917;-83
2022/01/17 07:05:26;;;;;;;;;;;;;;;;;;5056010;28;20365;-83
2022/01/17 07:07:52;;;;;;;;;;;;;;;;;;5056046;28;20316;-84
2022/01/17 07:10:17;;;;;;;;;;;;;;;;;;5056025;28;20023;-84
2022/01/17 07:12:42;;;;;;;;;;;;;;;;;;5055981;28;19953;-80
2022/01/17 07:15:08;;;;;;;;;;;;;;;;;;5055851;28;20003;-81
2022/01/17 07:17:34;;;;;;;;;;;;;;;;;;5055895;28;19917;-85
2022/01/17 07:20:00;;;;;;;;;;;;;;;;;;5055892;28;19928;-82
2022/01/17 07:22:27;;;;;;;;;;;;;;;;;;5055839;28;19920;-83
2022/01/17 07:24:54;;;;;;;;;;;;;;;;;;5055942;28;19917;-83
2022/01/17 07:27:19;;;;;;;;;;;;;;;;;;5055412;28;20389;-86
2022/01/17 07:29:45;;;;;;;;;;;;;;;;;;5056018;28;19924;-82
2022/01/17 07:32:10;;;;;;;;;;;;;;;;;;5055850;28;19917;-83
2022/01/17 07:34:36;;;;;;;;;;;;;;;;;;5055776;28;19923;-84
2022/01/17 07:37:01;;;;;;;;;;;;;;;;;;5055630;28;19921;-80
2022/01/17 07:39:27;;;;;;;;;;;;;;;;;;5055418;28;19920;-83
2022/01/17 07:41:52;;;;;;;;;;;;;;;;;;5055615;28;20335;-83
2022/01/17 07:44:19;;;;;;;;;;;;;;;;;;5037579;28;19932;-85
2022/01/17 07:46:50;;;;;;;;;;;;;;;;;;5055308;28;20444;-81
2022/01/17 07:49:22;;;;;;;;;;;;;;;;;;5055291;28;19921;-82
2022/01/17 07:51:49;;;;;;;;;;;;;;;;;;5055031;28;20436;-84
2022/01/17 07:54:16;;;;;;;;;;;;;;;;;;5055268;28;19921;-83
2022/01/17 07:56:45;;;;;;;;;;;;;;;;;;5054921;28;19932;-85
2022/01/17 07:59:12;;;;;;;;;;;;;;;;;;5037278;28;19920;-85
2022/01/17 08:01:38;;;;;;;;;;;;;;;;;;5055259;28;19917;-85
2022/01/17 08:04:04;;;;;;;;;;;;;;;;;;5055050;28;19927;-82
2022/01/17 08:06:30;;;;;;;;;;;;;;;;;;5055034;28;19920;-83
2022/01/17 08:08:55;;;;;;;;;;;;;;;;;;5054837;28;19923;-84
2022/01/17 08:11:21;;;;;;;;;;;;;;;;;;5054900;28;19955;-85
2022/01/17 08:13:46;;;;;;;;;;;;;;;;;;5054972;28;20338;-83
2022/01/17 08:16:13;;;;;;;;;;;;;;;;;;5054916;28;20340;-83
2022/01/17 08:18:39;;;;;;;;;;;;;;;;;;5054898;28;19917;-82
2022/01/17 08:21:04;;;;;;;;;;;;;;;;;;5054670;28;20000;-85
2022/01/17 08:23:48;;;;;;;;;;;;;;;;;;5054780;28;19990;-81
2022/01/17 08:26:13;;;;;;;;;;;;;;;;;;5054619;28;20377;-82
2022/01/17 08:28:40;;;;;;;;;;;;;;;;;;5036605;28;19955;-82
2022/01/17 08:31:07;;;;;;;;;;;;;;;;;;5036646;28;20008;-83
2022/01/17 08:33:32;;;;;;;;;;;;;;;;;;5054468;28;20331;-84
2022/01/17 08:35:58;;;;;;;;;;;;;;;;;;5054483;28;19917;-83
2022/01/17 08:38:24;;;;;;;;;;;;;;;;;;5054601;28;19917;-83
2022/01/17 08:40:50;;;;;;;;;;;;;;;;;;5036379;28;19928;-82
2022/01/17 08:43:15;;;;;;;;;;;;;;;;;;5054418;28;19920;-86
2022/01/17 08:45:41;;;;;;;;;;;;;;;;;;5054423;28;20332;-83
2022/01/17 08:48:06;;;;;;;;;;;;;;;;;;5054262;28;20308;-84
2022/01/17 08:50:32;;;;;;;;;;;;;;;;;;5054306;28;19921;-82
2022/01/17 08:52:57;;;;;;;;;;;;;;;;;;5069401;28;19928;-84
2022/01/17 08:55:23;;;;;;;;;;;;;;;;;;5054055;28;19917;-84
2022/01/17 08:57:49;;;;;;;;;;;;;;;;;;5053574;28;19940;-82
2022/01/17 09:00:16;;;;;;;;;;;;;;;;;;5054355;28;20404;-84
2022/01/17 09:02:41;;;;;;;;;;;;;;;;;;5053924;28;19913;-84
2022/01/17 09:05:07;;;;;;;;;;;;;;;;;;5053688;28;19928;-83
2022/01/17 09:07:32;;;;;;;;;;;;;;;;;;5036124;28;20357;-84
2022/01/17 09:09:58;;;;;;;;;;;;;;;;;;5035741;28;20380;-84
2022/01/17 09:12:23;;;;;;;;;;;;;;;;;;5053755;28;20014;-84
2022/01/17 09:14:49;;;;;;;;;;;;;;;;;;5053691;28;20280;-83
2022/01/17 09:17:14;;;;;;;;;;;;;;;;;;5053467;28;19963;-83
2022/01/17 09:19:41;;;;;;;;;;;;;;;;;;5053487;28;19975;-82
2022/01/17 09:22:07;;;;;;;;;;;;;;;;;;5053564;28;19916;-84
2022/01/17 09:24:34;;;;;;;;;;;;;;;;;;5053427;28;19921;-83
2022/01/17 09:26:59;;;;;;;;;;;;;;;;;;5053346;28;19943;-84
2022/01/17 09:29:25;;;;;;;;;;;;;;;;;;5053349;28;20012;-84
2022/01/17 09:31:50;;;;;;;;;;;;;;;;;;5053402;28;20400;-84
2022/01/17 09:34:16;;;;;;;;;;;;;;;;;;5053303;28;20039;-84
2022/01/17 09:36:41;;;;;;;;;;;;;;;;;;5053232;28;19940;-84
2022/01/17 09:58:48;;;;;;;;;;;;;;;;;;5132248;27;20459;-73
2022/01/17 10:01:13;;;;;;;;;;;;;;;;;;5132125;28;19919;-74
2022/01/17 10:03:39;;;;;;;;;;;;;;;;;;5132032;28;19923;-73
2022/01/17 10:06:04;;;;;;;;;;;;;;;;;;5132033;27;19916;-72
2022/01/17 10:08:30;;;;;;;;;;;;;;;;;;5132061;28;19916;-72
2022/01/17 10:11:04;;;;;;;;;;;;;;;;;;5131862;28;19922;-73
2022/01/17 10:13:45;;;;;;;;;;;;;;;;;;5131848;27;20263;-73
2022/01/17 10:16:15;;;;;;;;;;;;;;;;;;5131784;27;20323;-73
2022/01/17 10:18:42;;;;;;;;;;;;;;;;;;5131925;27;20014;-74
2022/01/17 10:21:16;;;;;;;;;;;;;;;;;;5131788;27;19941;-74
2022/01/17 10:24:11;;;;;;;;;;;;;;;;;;5132038;27;19950;-74
2022/01/17 10:37:15;;;;;;;;;;;;;;;;;;5131702;28;19922;-73
2022/01/17 10:39:54;;;;;;;;;;;;;;;;;;5131441;27;20010;-73
2022/01/17 10:42:23;;;;;;;;;;;;;;;;;;5131546;27;20065;-74
2022/01/17 10:44:48;;;;;;;;;;;;;;;;;;5131562;27;19916;-73
2022/01/17 10:47:17;;;;;;;;;;;;;;;;;;5129989;28;19965;-73
2022/01/17 10:49:54;;;;;;;;;;;;;;;;;;5131487;27;20319;-75
2022/01/17 10:52:33;;;;;;;;;;;;;;;;;;5131139;27;20014;-75
2022/01/17 10:55:00;;;;;;;;;;;;;;;;;;5131352;27;20421;-72
2022/01/17 10:57:26;;;;;;;;;;;;;;;;;;5130744;27;20006;-74
2022/01/17 10:59:52;;;;;;;;;;;;;;;;;;5116740;28;20010;-73
2022/01/17 11:02:18;;;;;;;;;;;;;;;;;;5117351;28;19912;-74
2022/01/17 11:04:43;;;;;;;;;;;;;;;;;;5117453;28;19916;-75
2022/01/17 11:07:09;;;;;;;;;;;;;;;;;;5117136;28;19916;-75
2022/01/17 11:09:57;;;;;;;;;;;;;;;;;;5117136;28;20382;-75
2022/01/17 11:12:27;;;;;;;;;;;;;;;;;;5117071;28;19916;-75
2022/01/17 11:14:55;;;;;;;;;;;;;;;;;;5117023;28;19967;-74
2022/01/17 11:17:21;;;;;;;;;;;;;;;;;;5116908;28;19916;-73
2022/01/17 11:20:04;;;;;;;;;;;;;;;;;;5116875;28;20003;-73
2022/01/17 11:22:30;;;;;;;;;;;;;;;;;;5116900;28;19923;-74
2022/01/17 11:24:58;;;;;;;;;;;;;;;;;;5117144;28;19915;-75
2022/01/17 11:27:24;;;;;;;;;;;;;;;;;;5116755;28;19915;-74
2022/01/17 11:29:50;;;;;;;;;;;;;;;;;;5117260;28;19923;-73
2022/01/17 11:32:16;;;;;;;;;;;;;;;;;;5116725;28;19923;-73
2022/01/17 11:34:41;;;;;;;;;;;;;;;;;;5116627;28;19916;-72
2022/01/17 11:37:07;;;;;;;;;;;;;;;;;;5116480;28;19961;-72
2022/01/17 11:39:42;;;;;;;;;;;;;;;;;;5116581;28;20358;-75
2022/01/17 11:42:27;;;;;;;;;;;;;;;;;;5116536;28;19915;-73
2022/01/17 11:44:52;;;;;;;;;;;;;;;;;;5149686;27;19916;-73
2022/01/17 11:47:37;;;;;;;;;;;;;;;;;;5116383;27;19912;-73
2022/01/17 11:50:21;;;;;;;;;;;;;;;;;;5116294;28;19960;-74
2022/01/17 11:52:47;;;;;;;;;;;;;;;;;;5116834;28;19918;-72
2022/01/17 11:55:12;;;;;;;;;;;;;;;;;;5116524;28;19916;-75
2022/01/17 11:57:38;;;;;;;;;;;;;;;;;;5115795;28;19967;-74
2022/01/17 12:00:05;;;;;;;;;;;;;;;;;;5115673;28;20325;-74
2022/01/17 12:02:32;;;;;;;;;;;;;;;;;;5115708;28;20439;-74
2022/01/17 12:05:07;;;;;;;;;;;;;;;;;;5114546;28;20328;-75
2022/01/17 12:07:37;;;;;;;;;;;;;;;;;;5115623;28;19967;-74
2022/01/17 12:10:07;;;;;;;;;;;;;;;;;;5114910;28;19959;-75
2022/01/17 12:12:33;;;;;;;;;;;;;;;;;;5120582;28;19962;-74
2022/01/17 12:15:05;;;;;;;;;;;;;;;;;;5118207;28;19916;-74
2022/01/17 12:17:31;;;;;;;;;;;;;;;;;;5115414;28;19916;-74
2022/01/17 12:20:03;;;;;;;;;;;;;;;;;;5113357;28;19920;-75
2022/01/17 12:22:29;;;;;;;;;;;;;;;;;;5115099;28;20345;-74
2022/01/17 12:24:54;;;;;;;;;;;;;;;;;;5115241;28;20244;-74
2022/01/17 12:27:20;;;;;;;;;;;;;;;;;;5115671;28;19923;-74
2022/01/17 12:29:51;;;;;;;;;;;;;;;;;;5115583;28;19915;-73
2022/01/17 12:32:20;;;;;;;;;;;;;;;;;;5115623;28;19920;-75
2022/01/17 12:34:46;;;;;;;;;;;;;;;;;;5115508;28;19915;-74
2022/01/17 12:37:31;;;;;;;;;;;;;;;;;;5115380;28;20382;-72
2022/01/17 12:40:08;;;;;;;;;;;;;;;;;;5115458;28;19920;-74
2022/01/17 12:42:49;;;;;;;;;;;;;;;;;;5115355;28;19918;-75
2022/01/17 12:45:19;;;;;;;;;;;;;;;;;;5113950;28;19966;-73
2022/01/17 12:47:45;;;;;;;;;;;;;;;;;;5115308;28;19916;-75
2022/01/17 12:50:10;;;;;;;;;;;;;;;;;;5115586;28;20076;-74
2022/01/17 12:52:36;;;;;;;;;;;;;;;;;;5115476;28;20379;-73
2022/01/17 12:55:03;;;;;;;;;;;;;;;;;;5097574;28;19920;-74
2022/01/17 12:57:29;;;;;;;;;;;;;;;;;;5107488;28;20336;-76
2022/01/17 12:59:54;;;;;;;;;;;;;;;;;;5103325;28;19919;-75
2022/01/17 13:02:20;;;;;;;;;;;;;;;;;;5100588;28;19919;-76
2022/01/17 13:04:45;;;;;;;;;;;;;;;;;;5102518;28;19919;-76
2022/01/17 13:07:11;;;;;;;;;;;;;;;;;;5107367;28;19943;-76
2022/01/17 13:09:39;;;;;;;;;;;;;;;;;;5108214;28;19924;-75
2022/01/17 13:12:05;;;;;;;;;;;;;;;;;;5104398;28;19920;-75
2022/01/17 13:14:32;;;;;;;;;;;;;;;;;;5105786;28;19931;-76
2022/01/17 13:16:58;;;;;;;;;;;;;;;;;;5110061;28;19923;-75
2022/01/17 13:19:23;;;;;;;;;;;;;;;;;;5104279;28;19920;-76
2022/01/17 13:21:50;;;;;;;;;;;;;;;;;;5096715;28;20025;-75
2022/01/17 13:24:36;;;;;;;;;;;;;;;;;;5098462;28;21254;-76
2022/01/17 13:27:12;;;;;;;;;;;;;;;;;;5096316;27;19924;-75
2022/01/17 13:29:39;;;;;;;;;;;;;;;;;;5113653;28;20010;-74
2022/01/17 13:32:05;;;;;;;;;;;;;;;;;;5114372;28;20370;-74
2022/01/17 13:34:31;;;;;;;;;;;;;;;;;;5105463;28;19922;-77
2022/01/17 13:37:01;;;;;;;;;;;;;;;;;;5093990;28;19920;-76
2022/01/17 13:39:26;;;;;;;;;;;;;;;;;;5111575;28;19920;-76
2022/01/17 13:41:53;;;;;;;;;;;;;;;;;;5114491;28;20259;-75
2022/01/17 13:44:23;;;;;;;;;;;;;;;;;;5114261;28;19923;-76
2022/01/17 13:46:54;;;;;;;;;;;;;;;;;;5114537;28;19916;-76
2022/01/17 13:49:20;;;;;;;;;;;;;;;;;;5114415;28;19918;-76
2022/01/17 13:51:46;;;;;;;;;;;;;;;;;;5114312;28;19916;-76
2022/01/17 13:54:11;;;;;;;;;;;;;;;;;;5107973;28;19920;-76
2022/01/17 13:56:37;;;;;;;;;;;;;;;;;;5093684;28;20049;-76
2022/01/17 13:59:05;;;;;;;;;;;;;;;;;;5094224;28;20344;-75
2022/01/17 14:01:32;;;;;;;;;;;;;;;;;;5093805;28;20287;-74
2022/01/17 14:03:59;;;;;;;;;;;;;;;;;;5093866;28;20437;-75
2022/01/17 14:06:27;;;;;;;;;;;;;;;;;;5094146;28;19916;-76
2022/01/17 14:08:58;;;;;;;;;;;;;;;;;;5094022;28;19916;-76
2022/01/17 14:11:24;;;;;;;;;;;;;;;;;;5093994;28;19924;-76
2022/01/17 14:13:55;;;;;;;;;;;;;;;;;;5106382;28;19965;-75
2022/01/17 14:16:20;;;;;;;;;;;;;;;;;;5113998;28;19922;-76
2022/01/17 14:18:47;;;;;;;;;;;;;;;;;;5114278;28;19916;-76
2022/01/17 14:21:39;;;;;;;;;;;;;;;;;;5114097;28;19969;-76
2022/01/17 14:24:08;;;;;;;;;;;;;;;;;;5110958;28;19923;-76
2022/01/17 14:26:34;;;;;;;;;;;;;;;;;;5113994;28;19916;-75
2022/01/17 14:28:59;;;;;;;;;;;;;;;;;;5113938;28;19923;-75
2022/01/17 14:31:30;;;;;;;;;;;;;;;;;;5114206;28;19916;-75
2022/01/17 14:34:07;;;;;;;;;;;;;;;;;;5116071;28;19915;-74
2022/01/17 14:36:32;;;;;;;;;;;;;;;;;;5117884;28;19916;-75
2022/01/17 14:38:58;;;;;;;;;;;;;;;;;;5117935;28;20360;-76
2022/01/17 14:41:33;;;;;;;;;;;;;;;;;;5117753;28;19938;-75
2022/01/17 14:44:02;;;;;;;;;;;;;;;;;;5117661;28;19915;-75
2022/01/17 14:46:28;;;;;;;;;;;;;;;;;;5113041;28;19942;-75
2022/01/17 14:48:53;;;;;;;;;;;;;;;;;;5111187;28;20367;-76
2022/01/17 14:51:20;;;;;;;;;;;;;;;;;;5116783;28;19969;-75
2022/01/17 14:53:51;;;;;;;;;;;;;;;;;;5117458;28;19924;-75
2022/01/17 14:59:49;;;;;;;;;;;;;;;;;;5117839;28;20394;-76
2022/01/17 15:01:54;;;;;;;;;;;;;;;;;;5113220;28;19928;-75
2022/01/17 15:04:20;;;;;;;;;;;;;;;;;;5117200;28;19963;-75
2022/01/17 15:06:45;;;;;;;;;;;;;;;;;;5115920;28;19916;-76
2022/01/17 15:09:11;;;;;;;;;;;;;;;;;;5112580;28;19943;-75
2022/01/17 15:11:37;;;;;;;;;;;;;;;;;;5115641;28;20294;-75
2022/01/17 15:14:03;;;;;;;;;;;;;;;;;;5115635;28;19919;-76
2022/01/17 15:16:28;;;;;;;;;;;;;;;;;;5111455;27;19915;-75
2022/01/17 15:18:54;;;;;;;;;;;;;;;;;;5114345;28;19921;-76
2022/01/17 15:21:19;;;;;;;;;;;;;;;;;;5112478;28;20359;-76
2022/01/17 15:23:45;;;;;;;;;;;;;;;;;;5114098;28;19919;-75
2022/01/17 15:26:10;;;;;;;;;;;;;;;;;;5117100;28;20359;-76
2022/01/17 15:28:38;;;;;;;;;;;;;;;;;;5116227;28;19920;-76
2022/01/17 15:31:09;;;;;;;;;;;;;;;;;;5119479;28;19923;-79
2022/01/17 15:33:38;;;;;;;;;;;;;;;;;;5122983;28;19937;-79
2022/01/17 15:36:03;;;;;;;;;;;;;;;;;;5103582;28;20007;-77
2022/01/17 15:38:29;;;;;;;;;;;;;;;;;;5102923;28;20069;-75
2022/01/17 15:40:54;;;;;;;;;;;;;;;;;;5098498;28;19920;-76
2022/01/17 15:43:20;;;;;;;;;;;;;;;;;;5105091;28;19920;-76
2022/01/17 15:45:46;;;;;;;;;;;;;;;;;;5106141;28;20268;-76
2022/01/17 15:48:11;;;;;;;;;;;;;;;;;;5095555;28;19916;-78
2022/01/17 15:50:37;;;;;;;;;;;;;;;;;;5098278;28;20371;-79
2022/01/17 15:53:03;;;;;;;;;;;;;;;;;;5134737;27;20291;-78
2022/01/17 15:55:28;;;;;;;;;;;;;;;;;;5102485;28;20342;-76
2022/01/17 15:57:53;;;;;;;;;;;;;;;;;;5104865;28;20413;-78
2022/01/17 16:00:19;;;;;;;;;;;;;;;;;;5107093;28;20495;-78
2022/01/17 16:02:44;;;;;;;;;;;;;;;;;;5103080;28;19915;-76
2022/01/17 16:05:10;;;;;;;;;;;;;;;;;;5102045;28;19930;-75
2022/01/17 16:07:35;;;;;;;;;;;;;;;;;;5102943;28;19969;-76
2022/01/17 16:10:02;;;;;;;;;;;;;;;;;;5102650;28;19928;-77
2022/01/17 16:12:28;;;;;;;;;;;;;;;;;;5106341;28;19985;-77
2022/01/17 16:14:54;;;;;;;;;;;;;;;;;;5102910;28;19916;-74
2022/01/17 16:17:21;;;;;;;;;;;;;;;;;;5099155;28;19920;-76
2022/01/17 16:19:46;;;;;;;;;;;;;;;;;;5106787;28;19935;-77
2022/01/17 16:22:11;;;;;;;;;;;;;;;;;;5094156;28;19916;-76
2022/01/17 16:24:39;;;;;;;;;;;;;;;;;;5102294;28;19916;-76
2022/01/17 16:27:04;;;;;;;;;;;;;;;;;;5100787;28;19920;-76
2022/01/17 16:29:30;;;;;;;;;;;;;;;;;;5107697;28;19927;-76
2022/01/17 16:31:55;;;;;;;;;;;;;;;;;;5102548;28;19920;-77
2022/01/17 16:34:21;;;;;;;;;;;;;;;;;;5101617;28;19915;-77
2022/01/17 16:36:47;;;;;;;;;;;;;;;;;;5101728;28;19928;-76
2022/01/17 16:39:13;;;;;;;;;;;;;;;;;;5099994;28;19920;-76
2022/01/17 16:41:38;;;;;;;;;;;;;;;;;;5100484;28;19920;-76
2022/01/17 16:44:04;;;;;;;;;;;;;;;;;;5099726;28;19965;-76
2022/01/17 16:46:29;;;;;;;;;;;;;;;;;;5100173;28;19920;-76
2022/01/17 16:48:54;;;;;;;;;;;;;;;;;;5103672;28;19919;-76
2022/01/17 16:51:20;;;;;;;;;;;;;;;;;;5108174;28;19916;-75
2022/01/17 16:53:46;;;;;;;;;;;;;;;;;;5097945;28;19935;-76
2022/01/17 16:56:12;;;;;;;;;;;;;;;;;;5097075;28;19928;-75
2022/01/17 16:58:38;;;;;;;;;;;;;;;;;;5140198;27;19935;-76
2022/01/17 17:01:04;;;;;;;;;;;;;;;;;;5095651;28;19920;-76
2022/01/17 17:03:30;;;;;;;;;;;;;;;;;;5095116;28;20654;-76
2022/01/17 17:05:56;;;;;;;;;;;;;;;;;;5094033;28;19919;-76
2022/01/17 17:08:22;;;;;;;;;;;;;;;;;;5098318;28;19931;-75
2022/01/17 17:10:47;;;;;;;;;;;;;;;;;;5099099;28;20000;-75
2022/01/17 17:13:12;;;;;;;;;;;;;;;;;;5102008;28;20303;-75
2022/01/17 17:15:38;;;;;;;;;;;;;;;;;;5101586;28;19927;-75
2022/01/17 17:18:04;;;;;;;;;;;;;;;;;;5103299;28;20291;-75
2022/01/17 17:20:31;;;;;;;;;;;;;;;;;;5100283;28;19919;-76
2022/01/17 17:22:57;;;;;;;;;;;;;;;;;;5103292;28;20268;-76
2022/01/17 17:25:22;;;;;;;;;;;;;;;;;;5113967;28;19916;-76
2022/01/17 17:27:48;;;;;;;;;;;;;;;;;;5108064;28;19927;-74
2022/01/17 17:30:13;;;;;;;;;;;;;;;;;;5100665;28;19923;-76
2022/01/17 17:32:39;;;;;;;;;;;;;;;;;;5102455;28;19955;-75